Últimos artigos:
Acender um LED com a tensão da rede eléctrica
Programação do Yaesu FT-60 para os EasySats
AO-91 (RadFxSat Fox-1B) está no Ar!
CT7AFR DIY CW-Keyer
Shutdown button for the Raspberry Pi
Simple C code to dump I2C device memory
Últimas fotos:
Últimos METARs:
LPAZ 170330Z 34016KT 9999 SCT028 14/06 Q10...
LPFR 170330Z 05008KT 9999 SCT020 12/10 Q10...
LPHR 170345Z NIL=
LPLA 170300Z /////KT 9999 SCT025 SCT035 13...
LPMA 170330Z 36003KT 320V060 9999 FEW016 S...
LPPD 170330Z 32008KT 9999 FEW016 SCT045 13...
LPPR 170330Z 15007KT CAVOK 09/07 Q1020=
LPPS 170330Z 23004KT 9999 FEW015 15/12 Q10...
LPPT 170330Z 03004KT 6000 SCT001 09/08 Q10...
Últimos QSOs:
2019/01/18-07:31 40m TM49OTAN (PHIL)
2018/09/08-11:04 40m DJ5AV (MICHAEL)
2018/09/08-11:03 40m M3FEH (KARL)
2018/09/08-11:01 40m EB7HQE (JESUS)
2018/09/08-11:00 40m G4AFI (ANDREW)
2018/09/08-10:59 40m EA2DT (MANUEL)
  UTC
Rpi-6 CPU Temp: 28.2 °C (170401Z)
IN51oq 0400Z /////KT //// 17/10 Q1020=
14620